createdAt,value
2022-10-26T00:00:54.716Z,78.34
2022-10-26T00:03:22.493Z,80.42
2022-10-26T00:05:51.600Z,80.21
2022-10-26T00:08:19.244Z,77.70
2022-10-26T00:10:46.972Z,77.78
2022-10-26T00:13:14.836Z,77.66
2022-10-26T00:15:42.996Z,78.99
2022-10-26T00:18:10.949Z,78.43
2022-10-26T00:20:38.709Z,78.96
2022-10-26T00:23:07.804Z,76.79
2022-10-26T00:25:35.562Z,74.96
2022-10-26T00:28:03.272Z,77.06
2022-10-26T00:30:31.233Z,76.96
2022-10-26T00:32:58.921Z,84.01
2022-10-26T00:35:44.695Z,83.97
2022-10-26T00:38:14.516Z,84.78
2022-10-26T00:40:42.194Z,81.78
2022-10-26T00:43:16.377Z,83.32
2022-10-26T00:45:44.225Z,86.14
2022-10-26T00:48:17.809Z,96.31
2022-10-26T00:50:47.698Z,84.74
2022-10-26T00:53:17.060Z,82.04
2022-10-26T00:55:47.361Z,81.91
2022-10-26T00:58:15.630Z,82.30
2022-10-26T01:00:44.067Z,81.00
2022-10-26T01:03:12.540Z,79.24
2022-10-26T01:05:42.396Z,79.10
2022-10-26T01:08:10.787Z,80.45
2022-10-26T01:10:41.448Z,81.99
2022-10-26T01:13:09.356Z,87.33
2022-10-26T01:15:48.167Z,84.87
2022-10-26T01:18:23.276Z,80.02
2022-10-26T01:21:07.946Z,78.55
2022-10-26T01:23:42.391Z,79.31
2022-10-26T01:26:22.140Z,78.16
2022-10-26T01:29:02.100Z,77.86
2022-10-26T01:31:35.708Z,77.63
2022-10-26T01:34:08.689Z,80.61
2022-10-26T01:36:42.736Z,80.40
2022-10-26T01:39:15.936Z,78.16
2022-10-26T01:41:47.670Z,76.74
2022-10-26T01:44:18.983Z,77.08
2022-10-26T01:46:50.052Z,77.40
2022-10-26T01:49:21.250Z,76.18
2022-10-26T01:51:50.496Z,80.80
2022-10-26T01:54:18.414Z,91.74
2022-10-26T01:56:47.925Z,89.42
2022-10-26T01:59:47.188Z,83.13
2022-10-26T02:02:46.943Z,78.63
2022-10-26T02:05:27.349Z,76.86
2022-10-26T02:07:59.281Z,77.10
2022-10-26T02:10:34.252Z,80.22
2022-10-26T02:13:05.646Z,84.90
2022-10-26T02:15:39.626Z,79.52
2022-10-26T02:18:13.715Z,77.85
2022-10-26T02:20:44.322Z,78.51
2022-10-26T02:23:13.013Z,84.80
2022-10-26T02:25:43.327Z,92.74
2022-10-26T02:28:13.951Z,99.57
2022-10-26T02:30:43.282Z,88.57
2022-10-26T02:33:14.582Z,96.93
2022-10-26T02:35:45.397Z,87.04
2022-10-26T02:38:14.132Z,88.45
2022-10-26T02:40:43.038Z,91.83
2022-10-26T02:43:14.225Z,81.33
2022-10-26T02:45:45.514Z,78.52
2022-10-26T02:48:15.091Z,77.34
2022-10-26T02:50:48.694Z,78.76
2022-10-26T02:53:20.676Z,80.06
2022-10-26T02:55:51.306Z,81.65
2022-10-26T02:58:23.228Z,82.07
2022-10-26T03:00:51.188Z,87.65
2022-10-26T03:03:20.745Z,83.03
2022-10-26T03:05:48.466Z,81.05
2022-10-26T03:08:16.283Z,78.24
2022-10-26T03:10:45.658Z,78.38
2022-10-26T03:13:14.324Z,79.20
2022-10-26T03:15:42.208Z,81.00
2022-10-26T03:18:10.073Z,79.90
2022-10-26T03:20:39.270Z,82.48
2022-10-26T03:23:07.020Z,90.02
2022-10-26T03:25:34.984Z,80.04
2022-10-26T03:28:04.546Z,84.90
2022-10-26T03:30:32.935Z,77.52
2022-10-26T03:33:00.669Z,74.19
2022-10-26T03:35:28.578Z,76.05
2022-10-26T03:37:57.706Z,74.80
2022-10-26T03:40:25.490Z,78.40
2022-10-26T03:42:53.362Z,75.58
2022-10-26T03:45:21.210Z,74.82
2022-10-26T03:47:50.300Z,80.34
2022-10-26T03:50:20.444Z,83.67
2022-10-26T03:52:48.978Z,78.47
2022-10-26T03:55:19.398Z,81.76
2022-10-26T03:57:47.380Z,86.18
2022-10-26T04:00:17.390Z,95.64
2022-10-26T04:02:46.989Z,80.79
2022-10-26T04:05:16.573Z,79.13
2022-10-26T04:07:44.616Z,79.75
2022-10-26T04:10:12.298Z,79.42
2022-10-26T04:12:41.747Z,91.70
2022-10-26T04:15:10.211Z,84.78
2022-10-26T04:17:37.946Z,79.68
2022-10-26T04:20:06.551Z,76.34
2022-10-26T04:22:34.269Z,78.92
2022-10-26T04:25:01.999Z,78.44
2022-10-26T04:27:29.833Z,76.10
2022-10-26T04:29:59.093Z,77.96
2022-10-26T04:32:26.829Z,77.93
2022-10-26T04:34:54.565Z,75.30
2022-10-26T04:37:22.293Z,78.98
2022-10-26T04:39:49.973Z,77.20
2022-10-26T04:42:17.699Z,75.98
2022-10-26T04:44:45.446Z,77.91
2022-10-26T04:47:14.538Z,83.72
2022-10-26T04:49:42.242Z,91.28
2022-10-26T04:52:09.933Z,100.00
2022-10-26T04:54:37.631Z,95.68
2022-10-26T04:57:05.423Z,84.59
2022-10-26T04:59:33.135Z,82.66
2022-10-26T05:02:00.926Z,93.40
2022-10-26T05:04:30.450Z,100.00
2022-10-26T05:06:58.196Z,94.85
2022-10-26T05:09:25.928Z,100.00
2022-10-26T05:11:53.697Z,100.00
2022-10-26T05:14:21.446Z,100.00
2022-10-26T05:16:49.155Z,100.00
2022-10-26T05:19:16.876Z,100.00
2022-10-26T05:24:18.609Z,96.31
2022-10-26T05:26:46.421Z,95.54
2022-10-26T05:29:14.235Z,100.00
2022-10-26T05:31:41.935Z,100.00
2022-10-26T05:34:09.951Z,100.00
2022-10-26T05:36:37.661Z,100.00
2022-10-26T05:39:06.959Z,100.00
2022-10-26T05:41:34.674Z,95.56
2022-10-26T05:44:02.419Z,95.70
2022-10-26T05:46:30.202Z,100.00
2022-10-26T05:48:58.073Z,100.00
2022-10-26T05:51:25.837Z,100.00
2022-10-26T05:53:55.307Z,96.68
2022-10-26T05:56:37.298Z,84.31
2022-10-26T05:59:06.121Z,84.90
2022-10-26T06:01:41.834Z,93.43
2022-10-26T06:04:22.955Z,95.54
2022-10-26T06:06:55.178Z,100.00
2022-10-26T06:09:23.539Z,97.99
2022-10-26T06:11:53.326Z,96.26
2022-10-26T06:14:21.709Z,100.00
2022-10-26T06:17:04.718Z,100.00
2022-10-26T06:19:41.297Z,100.00
2022-10-26T06:22:21.890Z,100.00
2022-10-26T06:24:55.095Z,100.00
2022-10-26T06:27:29.358Z,100.00
2022-10-26T06:30:00.943Z,100.00
2022-10-26T06:32:28.787Z,97.84
2022-10-26T06:35:14.378Z,100.00
2022-10-26T06:37:43.824Z,100.00
2022-10-26T06:40:13.131Z,100.00
2022-10-26T06:42:43.029Z,100.00
2022-10-26T06:47:46.077Z,100.00
2022-10-26T06:50:24.121Z,100.00
2022-10-26T06:52:59.223Z,100.00
2022-10-26T06:55:27.376Z,100.00
2022-10-26T06:57:56.577Z,100.00
2022-10-26T07:00:26.040Z,85.69
2022-10-26T07:02:54.318Z,96.50
2022-10-26T07:05:22.569Z,100.00
2022-10-26T07:07:50.544Z,100.00
2022-10-26T07:10:18.458Z,100.00
2022-10-26T07:12:46.184Z,100.00
2022-10-26T07:15:15.265Z,100.00
2022-10-26T07:17:46.784Z,100.00
2022-10-26T07:20:15.035Z,100.00
2022-10-26T07:22:42.985Z,100.00
2022-10-26T07:25:12.280Z,100.00
2022-10-26T07:27:40.209Z,100.00
2022-10-26T07:30:08.997Z,100.00
2022-10-26T07:32:38.074Z,94.08
2022-10-26T07:35:06.553Z,96.97
2022-10-26T07:37:34.364Z,100.00
2022-10-26T07:40:05.658Z,96.24
2022-10-26T07:42:36.473Z,100.00
2022-10-26T07:45:05.402Z,100.00
2022-10-26T07:47:33.170Z,100.00
2022-10-26T07:50:03.295Z,100.00
2022-10-26T07:52:31.037Z,100.00
2022-10-26T07:54:58.740Z,100.00
2022-10-26T07:57:26.488Z,95.34
2022-10-26T07:59:54.368Z,86.25
2022-10-26T08:02:22.037Z,81.89
2022-10-26T08:04:49.726Z,83.45
2022-10-26T08:07:19.518Z,96.12
2022-10-26T08:09:47.202Z,96.27
2022-10-26T08:12:16.560Z,78.31
2022-10-26T08:14:44.572Z,74.77
2022-10-26T08:17:12.795Z,71.90
2022-10-26T08:19:40.759Z,80.92
2022-10-26T08:22:08.478Z,99.31
2022-10-26T08:24:37.585Z,94.31
2022-10-26T08:27:05.380Z,77.97
2022-10-26T08:29:33.088Z,78.27
2022-10-26T08:32:00.788Z,81.56
2022-10-26T08:34:28.524Z,76.50
2022-10-26T08:36:56.238Z,70.44
2022-10-26T08:39:23.920Z,87.49
2022-10-26T08:41:57.467Z,73.14
2022-10-26T08:44:28.218Z,71.97
2022-10-26T08:46:58.481Z,66.31
2022-10-26T08:49:28.402Z,65.32
2022-10-26T08:51:58.200Z,69.24
2022-10-26T08:54:33.845Z,99.41
2022-10-26T08:57:06.122Z,87.74
2022-10-26T08:59:37.112Z,81.98
2022-10-26T09:02:05.029Z,68.38
2022-10-26T09:04:34.180Z,69.95
2022-10-26T09:07:08.564Z,65.60
2022-10-26T09:09:42.165Z,75.70
2022-10-26T09:12:16.179Z,66.28
2022-10-26T09:14:49.564Z,62.12
2022-10-26T09:17:22.890Z,67.54
2022-10-26T09:20:07.801Z,63.77
2022-10-26T09:22:41.444Z,61.34
2022-10-26T09:25:17.577Z,60.39
2022-10-26T09:27:48.898Z,78.71
2022-10-26T09:30:19.329Z,71.12
2022-10-26T09:32:48.936Z,73.58
2022-10-26T09:35:20.118Z,67.84
2022-10-26T09:37:51.105Z,63.85
2022-10-26T09:40:23.005Z,61.38
2022-10-26T09:42:56.069Z,87.52
2022-10-26T09:45:26.964Z,95.74
2022-10-26T09:47:56.092Z,78.42
2022-10-26T09:50:27.422Z,60.26
2022-10-26T09:52:55.186Z,59.17
2022-10-26T09:55:23.129Z,61.62
2022-10-26T09:57:53.901Z,57.10
2022-10-26T10:00:23.081Z,58.73
2022-10-26T10:02:52.728Z,56.47
2022-10-26T10:08:20.168Z,63.01
2022-10-26T10:10:59.239Z,74.21
2022-10-26T10:13:30.395Z,67.91
2022-10-26T10:16:03.560Z,61.41
2022-10-26T10:18:31.353Z,72.55
2022-10-26T10:20:59.867Z,79.05
2022-10-26T10:23:30.634Z,60.84
2022-10-26T10:26:07.786Z,56.00
2022-10-26T10:28:36.863Z,58.42
2022-10-26T10:31:07.044Z,60.30
2022-10-26T10:33:36.995Z,56.83
2022-10-26T10:36:08.841Z,59.68
2022-10-26T10:38:41.540Z,72.51
2022-10-26T10:41:17.703Z,55.32
2022-10-26T10:43:49.394Z,53.69
2022-10-26T10:46:25.857Z,54.68
2022-10-26T10:48:56.523Z,57.63
2022-10-26T10:51:26.253Z,61.57
2022-10-26T10:53:55.396Z,66.45
2022-10-26T10:56:39.468Z,72.33
2022-10-26T10:59:39.711Z,71.53
2022-10-26T11:02:39.308Z,54.86
2022-10-26T11:05:27.509Z,55.14
2022-10-26T11:08:02.629Z,52.84
2022-10-26T11:10:35.101Z,49.25
2022-10-26T11:13:06.171Z,51.71
2022-10-26T11:15:36.081Z,53.41
2022-10-26T11:18:09.571Z,49.38
2022-10-26T11:20:40.934Z,48.04
2022-10-26T11:23:12.909Z,46.79
2022-10-26T11:25:45.918Z,48.18
2022-10-26T11:28:17.158Z,48.62
2022-10-26T11:30:48.380Z,46.94
2022-10-26T11:33:19.836Z,44.24
2022-10-26T11:35:55.073Z,47.67
2022-10-26T11:38:38.920Z,46.89
2022-10-26T11:41:20.030Z,45.40
2022-10-26T11:43:49.023Z,43.30
2022-10-26T11:46:20.984Z,40.29
2022-10-26T11:48:52.758Z,41.67
2022-10-26T11:51:32.864Z,42.61
2022-10-26T11:54:04.813Z,43.49
2022-10-26T11:56:36.966Z,41.84
2022-10-26T11:59:05.364Z,42.22
2022-10-26T12:01:34.926Z,41.84
2022-10-26T12:04:04.564Z,41.60
2022-10-26T12:06:33.391Z,42.41
2022-10-26T12:09:06.087Z,40.63
2022-10-26T12:11:39.028Z,39.49
2022-10-26T12:14:16.876Z,41.51
2022-10-26T12:16:51.568Z,40.54
2022-10-26T12:21:54.140Z,38.76
2022-10-26T12:24:30.654Z,39.14
2022-10-26T12:26:58.966Z,41.70
2022-10-26T12:29:33.001Z,37.60
2022-10-26T12:32:02.406Z,39.83
2022-10-26T12:35:04.018Z,38.72
2022-10-26T12:37:36.852Z,40.97
2022-10-26T12:40:40.599Z,38.17
2022-10-26T12:43:34.348Z,37.75
2022-10-26T12:46:45.319Z,35.26
2022-10-26T12:50:04.039Z,38.62
2022-10-26T12:52:49.556Z,36.81
2022-10-26T12:55:59.679Z,38.85
2022-10-26T12:59:02.390Z,36.67
2022-10-26T13:01:41.307Z,37.32
2022-10-26T13:04:41.343Z,39.79
2022-10-26T13:07:23.450Z,37.90
2022-10-26T13:10:00.319Z,36.67
2022-10-26T13:12:31.220Z,36.19
2022-10-26T13:15:03.154Z,37.43
2022-10-26T13:20:07.289Z,34.48
2022-10-26T13:22:45.678Z,36.17
2022-10-26T13:25:22.812Z,38.13
2022-10-26T13:28:01.013Z,35.94
2022-10-26T13:30:49.189Z,35.54
2022-10-26T13:33:32.481Z,35.50
2022-10-26T13:36:03.629Z,38.35
2022-10-26T13:38:35.286Z,32.00
2022-10-26T13:41:11.903Z,32.05
2022-10-26T13:43:39.913Z,32.80
2022-10-26T13:46:07.919Z,34.68
2022-10-26T13:48:39.464Z,36.91
2022-10-26T13:51:15.730Z,35.01
2022-10-26T13:53:47.858Z,34.28
2022-10-26T13:56:23.562Z,33.84
2022-10-26T13:58:53.385Z,33.50
2022-10-26T14:01:23.107Z,34.18
2022-10-26T14:03:51.376Z,32.63
2022-10-26T14:06:22.623Z,34.67
2022-10-26T14:08:52.677Z,35.10
2022-10-26T14:11:23.994Z,34.90
2022-10-26T14:13:53.003Z,32.73
2022-10-26T14:16:21.550Z,31.24
2022-10-26T14:18:49.652Z,31.22
2022-10-26T14:21:19.899Z,34.45
2022-10-26T14:23:50.035Z,31.94
2022-10-26T14:26:24.374Z,33.39
2022-10-26T14:28:53.842Z,34.55
2022-10-26T14:31:30.042Z,35.01
2022-10-26T14:33:59.373Z,35.12
2022-10-26T14:36:30.815Z,36.21
2022-10-26T14:39:00.895Z,35.66
2022-10-26T14:41:30.133Z,40.49
2022-10-26T14:43:59.027Z,43.23
2022-10-26T14:46:28.434Z,43.30
2022-10-26T14:48:57.196Z,45.82
2022-10-26T14:51:28.672Z,45.06
2022-10-26T14:53:58.812Z,41.66
2022-10-26T14:56:32.150Z,41.39
2022-10-26T14:59:00.208Z,41.17
2022-10-26T15:01:35.709Z,43.72
2022-10-26T15:04:06.044Z,42.64
2022-10-26T15:06:42.797Z,40.97
2022-10-26T15:09:30.556Z,40.75
2022-10-26T15:11:59.805Z,37.02
2022-10-26T15:14:27.529Z,39.68
2022-10-26T15:16:56.785Z,40.92
2022-10-26T15:19:25.391Z,42.05
2022-10-26T15:21:53.683Z,48.21
2022-10-26T15:24:33.162Z,43.76
2022-10-26T15:27:12.584Z,46.12
2022-10-26T15:29:42.576Z,47.42
2022-10-26T15:32:30.419Z,47.06
2022-10-26T15:35:31.381Z,47.05
2022-10-26T15:38:00.965Z,49.01
2022-10-26T15:40:30.622Z,49.38
2022-10-26T15:43:01.721Z,46.30
2022-10-26T15:45:31.780Z,46.20
2022-10-26T15:48:00.570Z,48.88
2022-10-26T15:50:30.087Z,51.40
2022-10-26T15:53:01.636Z,50.73
2022-10-26T15:55:29.948Z,49.10
2022-10-26T15:57:57.613Z,50.49
2022-10-26T16:00:26.705Z,49.47
2022-10-26T16:02:54.391Z,49.41
2022-10-26T16:05:22.122Z,51.99
2022-10-26T16:07:50.585Z,51.68
2022-10-26T16:10:21.556Z,49.80
2022-10-26T16:12:50.272Z,51.87
2022-10-26T16:15:20.398Z,51.99
2022-10-26T16:17:50.292Z,53.56
2022-10-26T16:20:21.071Z,57.55
2022-10-26T16:22:49.327Z,56.29
2022-10-26T16:25:18.553Z,59.16
2022-10-26T16:27:46.347Z,57.08
2022-10-26T16:30:15.087Z,65.94
2022-10-26T16:32:43.184Z,59.11
2022-10-26T16:35:12.739Z,60.11
2022-10-26T16:37:40.978Z,60.63
2022-10-26T16:40:10.422Z,60.07
2022-10-26T16:42:43.616Z,61.38
2022-10-26T16:45:12.224Z,65.58
2022-10-26T16:47:40.389Z,63.65
2022-10-26T16:50:09.250Z,66.27
2022-10-26T16:52:39.364Z,64.81
2022-10-26T16:55:08.727Z,63.09
2022-10-26T16:57:37.273Z,81.88
2022-10-26T17:00:06.307Z,72.31
2022-10-26T17:02:34.267Z,74.94
2022-10-26T17:05:05.889Z,67.67
2022-10-26T17:07:35.666Z,80.20
2022-10-26T17:10:05.485Z,66.70
2022-10-26T17:12:33.524Z,68.99
2022-10-26T17:15:02.548Z,63.83
2022-10-26T17:17:30.277Z,65.48
2022-10-26T17:19:58.437Z,73.44
2022-10-26T17:22:26.170Z,83.69
2022-10-26T17:24:53.869Z,78.97
2022-10-26T17:27:23.821Z,67.45
2022-10-26T17:29:51.521Z,67.74
2022-10-26T17:32:19.273Z,85.50
2022-10-26T17:34:46.979Z,74.19
2022-10-26T17:37:14.660Z,69.29
2022-10-26T17:39:42.328Z,72.97
2022-10-26T17:42:10.238Z,68.17
2022-10-26T17:44:39.937Z,67.18
2022-10-26T17:47:08.770Z,70.52
2022-10-26T17:49:36.610Z,67.55
2022-10-26T17:52:05.902Z,71.08
2022-10-26T17:54:33.685Z,66.29
2022-10-26T17:57:02.011Z,71.86
2022-10-26T17:59:29.943Z,72.22
2022-10-26T18:01:59.130Z,82.44
2022-10-26T18:04:26.932Z,76.24
2022-10-26T18:06:54.640Z,77.11
2022-10-26T18:09:22.530Z,64.89
2022-10-26T18:11:53.430Z,59.49
2022-10-26T18:14:23.515Z,61.68
2022-10-26T18:16:51.224Z,59.92
2022-10-26T18:19:20.512Z,59.06
2022-10-26T18:21:48.222Z,59.88
2022-10-26T18:24:15.964Z,58.38
2022-10-26T18:26:43.684Z,57.34
2022-10-26T18:29:12.407Z,56.68
2022-10-26T18:31:40.113Z,57.57
2022-10-26T18:34:08.032Z,56.99
2022-10-26T18:39:06.002Z,59.65
2022-10-26T18:41:33.956Z,63.18
2022-10-26T18:44:02.293Z,59.10
2022-10-26T18:46:31.074Z,57.78
2022-10-26T18:49:00.696Z,58.60
2022-10-26T18:51:31.128Z,58.92
2022-10-26T18:54:00.478Z,60.31
2022-10-26T18:56:28.644Z,60.99
2022-10-26T18:58:58.320Z,58.26
2022-10-26T19:01:27.765Z,62.32
2022-10-26T19:03:56.464Z,59.98
2022-10-26T19:06:25.891Z,68.40
2022-10-26T19:08:54.346Z,68.08
2022-10-26T19:11:24.924Z,72.03
2022-10-26T19:13:53.965Z,73.18
2022-10-26T19:16:43.980Z,66.02
2022-10-26T19:19:10.873Z,65.29
2022-10-26T19:21:38.693Z,62.42
2022-10-26T19:24:11.846Z,61.74
2022-10-26T19:26:43.538Z,65.98
2022-10-26T19:29:14.467Z,63.50
2022-10-26T19:31:42.633Z,64.17
2022-10-26T19:34:11.373Z,65.99
2022-10-26T19:36:39.551Z,67.15
2022-10-26T19:39:07.739Z,77.50
2022-10-26T19:41:35.445Z,82.51
2022-10-26T19:44:06.412Z,76.36
2022-10-26T19:46:34.242Z,77.16
2022-10-26T19:49:02.684Z,76.98
2022-10-26T19:51:32.089Z,79.44
2022-10-26T19:54:03.758Z,69.15
2022-10-26T19:56:32.295Z,72.01
2022-10-26T19:59:00.971Z,77.25
2022-10-26T20:01:30.236Z,78.07
2022-10-26T20:03:58.207Z,82.79
2022-10-26T20:06:25.954Z,79.25
2022-10-26T20:08:53.668Z,71.20
2022-10-26T20:11:21.446Z,74.50
2022-10-26T20:13:49.631Z,75.32
2022-10-26T20:16:18.577Z,77.50
2022-10-26T20:18:48.877Z,75.96
2022-10-26T20:21:17.699Z,74.14
2022-10-26T20:23:45.971Z,81.79
2022-10-26T20:26:18.353Z,92.47
2022-10-26T20:28:49.045Z,80.31
2022-10-26T20:31:16.774Z,75.54
2022-10-26T20:33:44.520Z,70.02
2022-10-26T20:36:13.577Z,71.62
2022-10-26T20:38:41.870Z,69.17
2022-10-26T20:41:12.119Z,72.93
2022-10-26T20:43:41.014Z,79.51
2022-10-26T20:46:11.448Z,76.13
2022-10-26T20:48:39.718Z,77.76
2022-10-26T20:53:52.125Z,83.77
2022-10-26T20:56:26.605Z,81.65
2022-10-26T20:58:55.797Z,77.94
2022-10-26T21:01:25.588Z,79.10
2022-10-26T21:03:54.087Z,78.56
2022-10-26T21:06:22.019Z,77.43
2022-10-26T21:08:51.400Z,77.50
2022-10-26T21:11:20.120Z,76.89
2022-10-26T21:13:49.264Z,77.62
2022-10-26T21:16:17.694Z,79.42
2022-10-26T21:18:45.422Z,80.11
2022-10-26T21:21:13.280Z,78.40
2022-10-26T21:23:41.860Z,79.93
2022-10-26T21:26:11.287Z,79.43
2022-10-26T21:28:41.479Z,77.23
2022-10-26T21:31:11.449Z,82.31
2022-10-26T21:33:39.539Z,83.77
2022-10-26T21:36:08.941Z,84.69
2022-10-26T21:38:36.766Z,80.93
2022-10-26T21:41:05.536Z,81.21
2022-10-26T21:43:34.989Z,87.36
2022-10-26T21:46:04.180Z,79.08
2022-10-26T21:48:33.384Z,86.45
2022-10-26T21:51:02.373Z,83.86
2022-10-26T21:53:30.459Z,83.34
2022-10-26T21:56:02.247Z,81.61
2022-10-26T21:58:30.179Z,85.20
2022-10-26T22:05:08.203Z,83.49
2022-10-26T22:07:35.941Z,84.88
2022-10-26T22:10:11.438Z,84.73
2022-10-26T22:12:39.718Z,90.57
2022-10-26T22:15:08.468Z,84.42
2022-10-26T22:17:38.706Z,85.79
2022-10-26T22:20:09.805Z,87.85
2022-10-26T22:22:37.663Z,90.51
2022-10-26T22:25:06.987Z,90.97
2022-10-26T22:27:34.752Z,88.51
2022-10-26T22:30:02.963Z,85.86
2022-10-26T22:32:30.698Z,86.81
2022-10-26T22:35:10.820Z,93.79
2022-10-26T22:37:47.561Z,99.61
2022-10-26T22:40:15.250Z,100.00
2022-10-26T22:42:43.034Z,92.87
2022-10-26T22:45:11.146Z,85.44
2022-10-26T22:47:38.933Z,91.91
2022-10-26T22:50:07.275Z,89.19
2022-10-26T22:52:35.065Z,85.95
2022-10-26T22:55:04.220Z,90.18
2022-10-26T22:57:32.119Z,98.70
2022-10-26T22:59:59.823Z,90.21
2022-10-26T23:02:27.571Z,93.63
2022-10-26T23:04:55.290Z,89.71
2022-10-26T23:07:26.004Z,91.80
2022-10-26T23:09:53.718Z,87.81
2022-10-26T23:12:22.846Z,84.96
2022-10-26T23:14:50.584Z,97.14
2022-10-26T23:17:18.257Z,96.32
2022-10-26T23:19:45.990Z,89.84
2022-10-26T23:22:13.845Z,96.94
2022-10-26T23:24:41.559Z,95.21
2022-10-26T23:27:09.252Z,94.57
2022-10-26T23:29:38.329Z,87.52
2022-10-26T23:32:06.237Z,95.24
2022-10-26T23:34:34.378Z,93.13
2022-10-26T23:37:02.035Z,100.00
2022-10-26T23:39:29.747Z,90.13
2022-10-26T23:41:57.420Z,89.40
2022-10-26T23:44:25.143Z,98.18
2022-10-26T23:46:54.190Z,96.56
2022-10-26T23:49:21.908Z,93.96
2022-10-26T23:51:49.576Z,96.74
2022-10-26T23:54:17.252Z,100.00
2022-10-26T23:56:45.001Z,100.00
2022-10-26T23:59:12.702Z,98.68
